Aérodrome de Bordeaux-Léognan-Saucats

LFCS

May 23, 2022

Time Code Weather Temp. Visibility Clouds Wind METAR/SPECI
10:30 am
M
64 °F 6¼ mi+ 2,300 ft 270°   270° 9 kt METAR LFBA 230830Z AUTO 27009KT 240V300 9999 BKN023 OVC028 18/14 Q1010 TEMPO BKN012
10:00 am
M
64 °F 6¼ mi+ 2,000 ft 250°   250° 5 kt METAR LFBA 230800Z AUTO 25005KT 220V300 9999 BKN020 OVC030 18/15 Q1010 TEMPO BKN012
9:30 am
M
63 °F 6¼ mi+ 2,000 ft 230°   230° 6 kt METAR LFBA 230730Z AUTO 23006KT 190V270 9999 -RADZ BKN020 OVC027 17/15 Q1010 NOSIG
9:00 am
M
63 °F 6¼ mi+ 2,300 ft 240°   240° 6 kt METAR LFBA 230700Z AUTO 24006KT 190V270 9999 OVC023 17/15 Q1010 NOSIG
8:30 am
M
63 °F 6¼ mi+ 2,000 ft 240°   240° 5 kt METAR LFBA 230630Z AUTO 24005KT 210V270 9999 -RA BKN020 OVC027 17/15 Q1010 NOSIG
8:00 am
M
64 °F 6¼ mi+ 2,100 ft 260°   260° 6 kt METAR LFBA 230600Z AUTO 26006KT 9999 OVC021 18/14 Q1010 NOSIG
7:30 am
M
63 °F 6¼ mi+ 1,900 ft 280°   280° 10 kt METAR LFBA 230530Z AUTO 28010KT 9999 BKN019 OVC025 17/15 Q1010 NOSIG
7:00 am
M
64 °F 6¼ mi+ 2,000 ft 280°   280° 8 kt METAR LFBA 230500Z AUTO 28008KT 250V320 9999 OVC020 18/14 Q1009
6:30 am
M
64 °F 6¼ mi+ 1,900 ft 270°   270° 11 kt METAR LFBA 230430Z AUTO 27011KT 240V300 9999 OVC019 18/14 Q1009
6:00 am
M
64 °F 6¼ mi+ 1,900 ft 270°   270° 14 kt METAR LFBA 230400Z AUTO 27014KT 230V290 9999 BKN019 OVC024 18/14 Q1009
5:30 am
M
64 °F 6¼ mi+ 1,500 ft 280°   280° 11 kt METAR LFBA 230330Z AUTO 28011KT 240V320 9999 OVC015 18/15 Q1009
5:00 am
M
64 °F 6¼ mi+ 1,700 ft 260°   260° 9 kt METAR LFBA 230300Z AUTO 26009KT 9999 OVC017 18/15 Q1009
4:30 am
M
66 °F 6¼ mi+ 1,600 ft 260°   260° 8 kt METAR LFBA 230230Z AUTO 26008KT 230V290 9999 OVC016 19/16 Q1009
4:00 am
M
66 °F 6¼ mi+ 1,700 ft 260°   260° 8 kt METAR LFBA 230200Z AUTO 26008KT 9999 OVC017 19/16 Q1009
3:30 am
M
66 °F 6¼ mi+ 1,600 ft 260°   260° 6 kt METAR LFBA 230130Z AUTO 26006KT 240V310 9999 OVC016/// ///CB 19/16 Q1009
3:00 am
M
64 °F 6¼ mi+ 1,800 ft 240°   240° 9 kt METAR LFBA 230100Z AUTO 24009KT 180V280 9999 BKN018/// BKN064/// BKN076/// ///CB 18/16 Q1010
2:30 am
M
66 °F 6¼ mi+ 1,900 ft 290°   290° 13 kt METAR LFBA 230030Z AUTO 29013KT 250V320 9999 -RA BKN019/// BKN049/// BKN070/// ///CB 19/16 Q1009
2:00 am
M
66 °F 6¼ mi+ 2,000 ft 280°   280° 14 kt METAR LFBA 230000Z AUTO 28014KT 9999 -RA BKN020/// BKN060/// BKN120/// ///CB 19/16 Q1010
1:30 am
V
68 °F 6¼ mi+ 6,800 ft 260°   260° 10 kt METAR LFBA 222330Z AUTO 26010KT 210V300 9999 SCT021/// BKN068/// BKN120/// //////CB 20/16 Q1010
1:00 am
V
68 °F 6¼ mi+ 16,000 ft 270°   270° 8 kt METAR LFBA 222300Z AUTO 27008KT 220V300 9999 FEW024/// SCT130/// BKN160/// //////TCU 20/16 Q1009
12:30 am
V
70 °F 6¼ mi+ 15,000 ft 280°   280° 12 kt METAR LFBA 222230Z AUTO 28012KT 240V300 9999 SCT023 BKN150 OVC170 21/16 Q1009
12:00 am
V
72 °F 6¼ mi+ - 290°   290° 17 kt METAR LFBA 222200Z AUTO 29017KT CAVOK 22/16 Q1008

May 22, 2022

Time Code Weather Temp. Visibility Clouds Wind METAR/SPECI
11:30 pm
V
75 °F 6¼ mi+ - 250°   250° 13 23 kt METAR LFBA 222130Z AUTO 25013G23KT 230V290 CAVOK 24/16 Q1007
11:00 pm
V
81 °F 6¼ mi+ - 240°   240° 18 29 kt METAR LFBA 222100Z AUTO 24018G29KT 210V280 CAVOK 27/15 Q1006
10:30 pm
V
77 °F 6¼ mi+ - 150°   150° 3 kt METAR LFBA 222030Z AUTO 15003KT 100V250 9999 ///TCU 25/18 Q1006 TEMPO -TSRA BKN007 BKN060CB
10:00 pm
I
79 °F 1½ mi - Var   Var 2 kt METAR LFBA 222000Z AUTO VRB02KT 6000 2500 //////TCU 26/19 Q1006 TEMPO VRB20G40KT 3000 TSRAGR BKN007 BKN060CB
9:30 pm
V
79 °F 6¼ mi+ - 260°   260° 3 kt METAR LFBA 221930Z AUTO 26003KT CAVOK 26/20 Q1007 TEMPO 3000 TSRAGR BKN007 BKN060CB BECMG 12010KT
9:00 pm
V
81 °F 6¼ mi+ - Var   Var 2 kt METAR LFBA 221900Z AUTO VRB02KT CAVOK 27/20 Q1006 TEMPO VRB20G40KT 3000 TSRAGR SCT015 BKN045CB
8:30 pm
V
81 °F 6¼ mi+ - Var   Var 1 kt METAR LFBA 221830Z AUTO VRB01KT CAVOK 27/19 Q1006 TEMPO VRB20G40KT 3000 TSRAGR SCT015 BKN045CB
8:00 pm
V
82 °F 6¼ mi+ - 290°   290° 2 kt METAR LFBA 221800Z AUTO 29002KT CAVOK 28/21 Q1006 TEMPO VRB20G40KT 3000 TSRAGR SCT015 BKN045CB
7:30 pm
V
84 °F 6¼ mi+ - Var   Var 2 kt METAR LFBA 221730Z AUTO VRB02KT CAVOK 29/19 Q1006 TEMPO VRB20G40KT 3000 TSRAGR SCT015 BKN045CB
7:00 pm
V
84 °F 6¼ mi+ - 110°   110° 6 kt METAR LFBA 221700Z AUTO 11006KT CAVOK 29/19 Q1005 TEMPO VRB20G40KT 3000 TSRAGR SCT015 BKN045CB
6:30 pm
V
86 °F 6¼ mi+ - 120°   120° 8 kt METAR LFBA 221630Z AUTO 12008KT 090V150 9999 //////TCU 30/18 Q1006 TEMPO VRB20G40KT 3000 TSRAGR SCT015 BKN045CB
6:00 pm
V
88 °F 6¼ mi+ - 130°   130° 6 kt METAR LFBA 221600Z AUTO 13006KT 100V160 9999 ///CB 31/19 Q1006 TEMPO VRB20G40KT 3000 TSRAGR
5:30 pm
V
88 °F 6¼ mi+ - 120°   120° 6 kt METAR LFBA 221530Z AUTO 12006KT 9999 ///TCU 31/18 Q1006 TEMPO VRB20G40KT 3000 TSRAGR SCT015 BKN045CB
5:00 pm
V
88 °F 6¼ mi+ - 130°   130° 8 kt METAR LFBA 221500Z AUTO 13008KT 100V160 CAVOK 31/18 Q1007 TEMPO VRB20G40KT 3000 TSRAGR SCT015 BKN045CB
4:30 pm
V
90 °F 6¼ mi+ - 130°   130° 5 kt METAR LFBA 221430Z AUTO 13005KT 090V180 CAVOK 32/19 Q1007 TEMPO VRB20G40KT 3000 TSRAGR SCT015 BKN045CB
4:00 pm
V
88 °F 6¼ mi+ - 110°   110° 7 kt METAR LFBA 221400Z AUTO 11007KT CAVOK 31/21 Q1007 NOSIG
3:30 pm
V
88 °F 6¼ mi+ - 110°   110° 7 kt METAR LFBA 221330Z AUTO 11007KT 080V140 CAVOK 31/19 Q1008 NOSIG
3:00 pm
V
88 °F 6¼ mi+ - 120°   120° 6 kt METAR LFBA 221300Z AUTO 12006KT 090V150 CAVOK 31/19 Q1008 NOSIG
2:30 pm
V
86 °F 6¼ mi+ - 110°   110° 6 kt METAR LFBA 221230Z AUTO 11006KT 060V150 CAVOK 30/19 Q1009 NOSIG
2:00 pm
V
86 °F 6¼ mi+ - 100°   100° 6 kt METAR LFBA 221200Z AUTO 10006KT 050V140 CAVOK 30/20 Q1009 NOSIG
1:30 pm
V
84 °F 6¼ mi+ - 130°   130° 8 kt METAR LFBA 221130Z AUTO 13008KT 100V160 CAVOK 29/20 Q1009 NOSIG
1:00 pm
V
82 °F 6¼ mi+ - 120°   120° 8 kt METAR LFBA 221100Z AUTO 12008KT 090V160 CAVOK 28/20 Q1009 NOSIG
12:30 pm
V
81 °F 6¼ mi+ - 120°   120° 8 kt METAR LFBA 221030Z AUTO 12008KT 080V150 CAVOK 27/20 Q1010 NOSIG
12:00 pm
V
79 °F 6¼ mi+ - 120°   120° 9 kt METAR LFBA 221000Z AUTO 12009KT 090V160 CAVOK 26/20 Q1010 NOSIG
11:30 am
V
77 °F 6¼ mi+ - 120°   120° 7 kt METAR LFBA 220930Z AUTO 12007KT 090V150 CAVOK 25/20 Q1011 NOSIG
11:00 am
V
73 °F 6¼ mi+ - 100°   100° 6 kt METAR LFBA 220900Z AUTO 10006KT 060V140 CAVOK 23/20 Q1011 NOSIG
10:30 am
M
73 °F 6¼ mi+ 1,100 ft Var   Var 3 kt METAR LFBA 220830Z AUTO VRB03KT 9999 BKN011 23/19 Q1012 BECMG NSC
10:00 am
M
72 °F 5⅝ mi 1,000 ft 200°   200° 4 kt METAR LFBA 220800Z AUTO 20004KT 150V240 9000 BKN010 22/19 Q1012 BECMG NSC
9:30 am
I
70 °F 6¼ mi+ 700 ft 140°   140° 6 kt METAR LFBA 220730Z AUTO 14006KT 100V190 9999 BKN007 21/19 Q1012 BECMG NSC
9:00 am
I
68 °F 5 mi 700 ft Var   Var 3 kt METAR LFBA 220700Z AUTO VRB03KT 8000 OVC007 20/19 Q1012 BECMG NSC
8:30 am
I
68 °F 4⅜ mi 600 ft Var   Var 1 kt METAR LFBA 220630Z AUTO VRB01KT 7000 OVC006 20/19 Q1012 BECMG NSC
8:00 am
I
68 °F 5 mi 600 ft Var   Var 3 kt METAR LFBA 220600Z AUTO VRB03KT 8000 OVC006 20/19 Q1012 BECMG NSC
7:30 am
V
66 °F 6¼ mi+ - 270°   270° 6 kt METAR LFBA 220530Z AUTO 27006KT 240V300 9999 FEW007 SCT200 19/18 Q1013
7:00 am
V
66 °F 6¼ mi+ - Var   Var 1 kt METAR LFBA 220500Z AUTO VRB01KT CAVOK 19/17 Q1013
6:30 am
V
64 °F 6¼ mi+ - 260°   260° 3 kt METAR LFBA 220430Z AUTO 26003KT CAVOK 18/17 Q1012
6:00 am
I
64 °F 1½ mi - Var   Var 3 kt METAR LFBA 220400Z AUTO VRB03KT 9999 2400 NSC 18/18 Q1012
5:30 am
V
64 °F 6¼ mi+ - 090°   090° 2 kt METAR LFBA 220330Z AUTO 09002KT CAVOK 18/17 Q1012
5:00 am
V
64 °F 6¼ mi+ - 300°   300° 2 kt METAR LFBA 220300Z AUTO 30002KT CAVOK 18/17 Q1013
4:30 am
V
66 °F 6¼ mi+ - Var   000° 0 kt METAR LFBA 220230Z AUTO 00000KT CAVOK 19/19 Q1013
4:00 am
V
66 °F 6¼ mi+ - Var   000° 0 kt METAR LFBA 220200Z AUTO 00000KT CAVOK 19/18 Q1013
3:30 am
V
64 °F 6¼ mi+ - 120°   120° 3 kt METAR LFBA 220130Z AUTO 12003KT CAVOK 18/18 Q1012
3:00 am
V
64 °F 6¼ mi+ - 110°   110° 4 kt METAR LFBA 220100Z AUTO 11004KT CAVOK 18/18 Q1012
2:30 am
V
64 °F 6¼ mi+ - 130°   130° 4 kt METAR LFBA 220030Z AUTO 13004KT CAVOK 18/17 Q1013
2:00 am
V
66 °F 6¼ mi+ - Var   Var 2 kt METAR LFBA 220000Z AUTO VRB02KT CAVOK 19/18 Q1013
1:30 am
V
68 °F 6¼ mi+ - 210°   210° 2 kt METAR LFBA 212330Z AUTO 21002KT CAVOK 20/18 Q1014
1:00 am
V
68 °F 6¼ mi+ - Var   Var 2 kt METAR LFBA 212300Z AUTO VRB02KT CAVOK 20/19 Q1014
12:30 am
V
68 °F 6¼ mi+ - 110°   110° 3 kt METAR LFBA 212230Z AUTO 11003KT CAVOK 20/18 Q1014
12:00 am
V
68 °F 6¼ mi+ - 100°   100° 2 kt METAR LFBA 212200Z AUTO 10002KT CAVOK 20/19 Q1014

May 21, 2022

Time Code Weather Temp. Visibility Clouds Wind METAR/SPECI
11:30 pm
V
70 °F 6¼ mi+ - Var   Var 2 kt METAR LFBA 212130Z AUTO VRB02KT CAVOK 21/19 Q1014
11:00 pm
V
72 °F 6¼ mi+ - Var   000° 0 kt METAR LFBA 212100Z AUTO 00000KT CAVOK 22/20 Q1014
10:30 pm
V
73 °F 6¼ mi+ - 120°   120° 1 kt METAR LFBA 212030Z AUTO 12001KT CAVOK 23/20 Q1014
10:00 pm
V
75 °F 5 mi - 110°   110° 2 kt METAR LFBA 212000Z AUTO 11002KT 8000 NSC 24/20 Q1014 NOSIG
9:30 pm
V
77 °F 6¼ mi+ - 230°   230° 1 kt METAR LFBA 211930Z AUTO 23001KT CAVOK 25/21 Q1014 NOSIG
9:00 pm
V
81 °F 6¼ mi+ - Var   Var 1 kt METAR LFBA 211900Z AUTO VRB01KT CAVOK 27/21 Q1014 NOSIG
8:30 pm
V
82 °F 6¼ mi+ - 170°   170° 1 kt METAR LFBA 211830Z AUTO 17001KT CAVOK 28/20 Q1014 NOSIG
8:00 pm
V
84 °F 6¼ mi+ - Var   Var 2 kt METAR LFBA 211800Z AUTO VRB02KT CAVOK 29/19 Q1014 NOSIG
7:30 pm
V
86 °F 6¼ mi+ - 180°   180° 4 kt METAR LFBA 211730Z AUTO 18004KT 140V200 CAVOK 30/20 Q1014 NOSIG
7:00 pm
V
88 °F 6¼ mi+ - 200°   200° 4 kt METAR LFBA 211700Z AUTO 20004KT CAVOK 31/19 Q1015 NOSIG
6:30 pm
V
90 °F 6¼ mi+ - 150°   150° 4 kt METAR LFBA 211630Z AUTO 15004KT 120V230 CAVOK 32/19 Q1015 NOSIG
6:00 pm
V
90 °F 6¼ mi+ - 130°   130° 5 kt METAR LFBA 211600Z AUTO 13005KT 070V150 CAVOK 32/19 Q1015 NOSIG
5:30 pm
V
90 °F 6¼ mi+ - 100°   100° 4 kt METAR LFBA 211530Z AUTO 10004KT 050V130 CAVOK 32/18 Q1015 NOSIG
5:00 pm
V
90 °F 6¼ mi+ - 140°   140° 3 kt METAR LFBA 211500Z AUTO 14003KT 080V200 CAVOK 32/18 Q1015 NOSIG
4:30 pm
V
90 °F 6¼ mi+ - Var   Var 2 kt METAR LFBA 211430Z AUTO VRB02KT CAVOK 32/19 Q1016 NOSIG
4:00 pm
V
88 °F 6¼ mi+ - Var   Var 2 kt METAR LFBA 211400Z AUTO VRB02KT CAVOK 31/19 Q1016 NOSIG
3:30 pm
V
88 °F 6¼ mi+ - 130°   130° 6 kt METAR LFBA 211330Z AUTO 13006KT 110V190 CAVOK 31/20 Q1016 NOSIG
3:00 pm
V
86 °F 6¼ mi+ - Var   Var 3 kt METAR LFBA 211300Z AUTO VRB03KT CAVOK 30/19 Q1017 NOSIG
2:30 pm
V
86 °F 6¼ mi+ - 260°   260° 3 kt METAR LFBA 211230Z AUTO 26003KT 210V300 CAVOK 30/18 Q1017 NOSIG
2:00 pm
V
84 °F 6¼ mi+ - 120°   120° 6 kt METAR LFBA 211200Z AUTO 12006KT 060V160 CAVOK 29/19 Q1017 NOSIG
1:30 pm
V
84 °F 6¼ mi+ - 120°   120° 6 kt METAR LFBA 211130Z AUTO 12006KT 060V160 CAVOK 29/19 Q1017 NOSIG
1:00 pm
V
82 °F 6¼ mi+ - 100°   100° 5 kt METAR LFBA 211100Z AUTO 10005KT 040V150 CAVOK 28/20 Q1018 NOSIG
12:30 pm
V
81 °F 6¼ mi+ - 090°   090° 5 kt METAR LFBA 211030Z AUTO 09005KT 070V130 CAVOK 27/19 Q1018 NOSIG
12:00 pm
V
79 °F 6¼ mi+ - 080°   080° 4 kt METAR LFBA 211000Z AUTO 08004KT 020V120 CAVOK 26/19 Q1019 NOSIG
11:30 am
V
77 °F 5⅝ mi - 100°   100° 6 kt METAR LFBA 210930Z AUTO 10006KT 050V140 9000 NSC 25/18 Q1019 NOSIG
11:00 am
V
75 °F 5⅝ mi - 090°   090° 5 kt METAR LFBA 210900Z AUTO 09005KT 050V120 9000 NSC 24/18 Q1019 NOSIG
Older data

Download our app

Easy access to all aviation weather on your mobile phone and tablet.
With many features not available on the website, like offline support and a personal airport list.

We and third parties follow your internet behavior on our website with cookies. If you continue, we assume you agree with our cookie policy. Learn more